CYVR/YVR METAR and TAF weather

Enter ICAO airport designator
Station Type Date Time Source
CYVR METAR 2020/06/05 10:00 UTC NOAA

CYVR 051000Z 02002KT 15SM OVC240 11/09 A2988 RMK CS8 SLP119


Station Type Date Time Source
CYVR Decoded METAR 2020/06/05 10:00 UTC NOAA

Vancouver International Air-Port, B. C., Canada (CYVR) 49-11N 123-10W 2M
Jun 05, 2020 - 06:00 AM EDT / 2020.06.05 1000 UTC
Wind: from the NNE (020 degrees) at 2 MPH (2 KT):0
Visibility: 15 mile(s):0
Sky conditions: overcast
Temperature: 51 F (11 C)
Dew Point: 48 F (9 C)
Relative Humidity: 87%
Pressure (altimeter): 29.88 in. Hg (1011 hPa)
ob: CYVR 051000Z 02002KT 15SM OVC240 11/09 A2988 RMK CS8 SLP119
cycle: 10

Station Type Date Time Source
CYVR TAF 2020/06/05 09:42 UTC NOAA

TAF TAF CYVR 050838Z 0509/0612 VRB03KT P6SM SCT250
FM051400 29010KT P6SM SCT140 BKN200
TEMPO 0518/0603 BKN140
FM060300 VRB03KT P6SM SCT040 BKN080
FM060900 32006KT P6SM FEW020 BKN040 OVC080
TEMPO 0609/0612 P6SM -SHRA FEW009 BKN020 OVC040
RMK NXT FCST BY 051200Z

Example: see airport list